Time;durP1;ratioP1;P1;durP2;ratioP2;P2;SDS_P1;SDS_P2;PMS_P1;PMS_P2;Temp;Humidity;BMP_temperature;BMP_pressure;BME280_temperature;BME280_humidity;BME280_pressure;Samples;Min_cycle;Max_cycle;Signal;HPM_P1;HPM_P2
2022/01/10 00:00:31;;;;;;;12.30;9.13;;;8.80;99.90;;;;;;5053482;28;20226;-64
2022/01/10 00:02:59;;;;;;;12.02;8.50;;;8.80;99.90;;;;;;5052285;28;20226;-64
2022/01/10 00:05:27;;;;;;;12.40;9.48;;;8.80;99.90;;;;;;5052691;28;20225;-64
2022/01/10 00:07:54;;;;;;;9.98;8.45;;;8.80;99.90;;;;;;5053596;28;20213;-64
2022/01/10 00:10:21;;;;;;;10.73;8.18;;;8.80;99.90;;;;;;5053382;28;20244;-64
2022/01/10 00:12:49;;;;;;;12.30;7.75;;;8.80;99.90;;;;;;5053986;28;20234;-64
2022/01/10 00:15:16;;;;;;;9.05;7.75;;;8.80;99.90;;;;;;5053411;28;20230;-64
2022/01/10 00:17:44;;;;;;;14.10;7.90;;;8.80;99.90;;;;;;5053799;28;20371;-64
2022/01/10 00:20:13;;;;;;;10.07;7.47;;;8.80;99.90;;;;;;5053487;28;20240;-64
2022/01/10 00:22:45;;;;;;;8.38;7.40;;;8.80;99.90;;;;;;5053593;28;20227;-64
2022/01/10 00:25:13;;;;;;;12.23;8.25;;;8.80;99.90;;;;;;5053317;28;20685;-64
2022/01/10 00:27:39;;;;;;;12.70;8.30;;;8.80;99.90;;;;;;5053718;28;20318;-64
2022/01/10 00:30:10;;;;;;;12.88;8.52;;;8.80;99.90;;;;;;5053281;28;20235;-64
2022/01/10 00:32:37;;;;;;;15.70;9.00;;;8.80;99.90;;;;;;5053320;28;20224;-64
2022/01/10 00:35:05;;;;;;;11.40;8.25;;;8.80;99.90;;;;;;5053397;28;20228;-65
2022/01/10 00:37:34;;;;;;;11.68;8.18;;;8.80;99.90;;;;;;5052906;28;20566;-65
2022/01/10 00:40:01;;;;;;;11.35;7.25;;;8.80;99.90;;;;;;5053233;28;20229;-64
2022/01/10 00:42:29;;;;;;;10.82;8.40;;;8.80;99.90;;;;;;5048175;28;20246;-64
2022/01/10 00:44:57;;;;;;;9.63;7.35;;;8.80;99.90;;;;;;5040282;28;20253;-64
2022/01/10 00:47:28;;;;;;;9.38;7.65;;;8.80;99.90;;;;;;5052636;28;20228;-64
2022/01/10 00:49:55;;;;;;;12.00;8.20;;;8.80;99.90;;;;;;5053340;28;20292;-64
2022/01/10 00:52:22;;;;;;;12.75;10.23;;;8.80;99.90;;;;;;5052541;28;20233;-64
2022/01/10 00:54:49;;;;;;;10.25;8.23;;;8.70;99.90;;;;;;5050747;28;20234;-64
2022/01/10 00:57:16;;;;;;;13.43;7.30;;;8.80;99.90;;;;;;5041727;28;20723;-64
2022/01/10 00:59:43;;;;;;;25.25;10.02;;;8.80;99.90;;;;;;5052650;28;20233;-64
2022/01/10 01:02:10;;;;;;;8.98;8.02;;;8.80;99.90;;;;;;5053032;28;20281;-64
2022/01/10 01:04:38;;;;;;;10.02;8.57;;;8.80;99.90;;;;;;5035362;28;20667;-64
2022/01/10 01:07:05;;;;;;;10.75;8.35;;;8.80;99.90;;;;;;5052930;28;20227;-64
2022/01/10 01:09:32;;;;;;;16.30;8.23;;;8.90;99.90;;;;;;5050850;28;20579;-64
2022/01/10 01:14:53;;;;;;;17.60;10.20;;;8.80;99.90;;;;;;5052540;28;20229;-64
2022/01/10 01:17:35;;;;;;;12.70;8.43;;;8.90;99.90;;;;;;5052525;28;20231;-64
2022/01/10 01:20:27;;;;;;;11.05;8.57;;;8.90;99.90;;;;;;5052302;28;20627;-64
2022/01/10 01:25:38;;;;;;;17.55;8.57;;;8.80;99.90;;;;;;5052622;28;20299;-64
2022/01/10 01:28:05;;;;;;;10.77;7.18;;;8.90;99.90;;;;;;5040971;28;20238;-64
2022/01/10 01:30:32;;;;;;;8.63;6.78;;;8.80;99.90;;;;;;5052549;28;20319;-64
2022/01/10 01:32:59;;;;;;;15.55;8.15;;;8.80;99.90;;;;;;5051558;28;20239;-64
2022/01/10 01:35:28;;;;;;;15.00;9.65;;;8.80;99.90;;;;;;5052759;28;20287;-64
2022/01/10 01:37:56;;;;;;;9.68;7.38;;;8.80;99.90;;;;;;5051992;28;20223;-64
2022/01/10 01:40:26;;;;;;;14.60;7.93;;;8.80;99.90;;;;;;5052340;28;20286;-64
2022/01/10 01:42:53;;;;;;;15.55;8.02;;;8.80;99.90;;;;;;5047244;28;20332;-64
2022/01/10 01:45:35;;;;;;;10.73;7.80;;;8.80;99.90;;;;;;5052339;28;20232;-64
2022/01/10 01:48:02;;;;;;;9.90;7.50;;;8.80;99.90;;;;;;5051984;28;20231;-64
2022/01/10 01:50:30;;;;;;;11.38;7.47;;;8.70;99.90;;;;;;5052289;28;20227;-64
2022/01/10 01:52:57;;;;;;;14.20;7.50;;;8.70;99.90;;;;;;5051105;28;20239;-64
2022/01/10 01:55:24;;;;;;;14.80;9.20;;;8.70;99.90;;;;;;5043179;28;20227;-64
2022/01/10 01:57:51;;;;;;;14.88;9.00;;;8.70;99.90;;;;;;5051750;28;20225;-64
2022/01/10 02:00:20;;;;;;;9.15;8.07;;;8.80;99.90;;;;;;5049006;28;20228;-64
2022/01/10 02:02:47;;;;;;;11.23;8.70;;;8.70;99.90;;;;;;5041680;28;20222;-64
2022/01/10 02:05:15;;;;;;;11.05;8.18;;;8.70;99.90;;;;;;5039726;28;20220;-64
2022/01/10 02:07:43;;;;;;;11.82;8.45;;;8.70;99.90;;;;;;5051659;28;20221;-64
2022/01/10 02:10:10;;;;;;;9.40;7.93;;;8.70;99.90;;;;;;5052082;28;20240;-64
2022/01/10 02:12:37;;;;;;;12.43;7.78;;;8.70;99.90;;;;;;5051671;28;20239;-64
2022/01/10 02:15:05;;;;;;;14.57;7.97;;;8.70;99.90;;;;;;5051819;28;20230;-64
2022/01/10 02:17:36;;;;;;;15.85;8.50;;;8.70;99.90;;;;;;5051748;28;20229;-64
2022/01/10 02:20:08;;;;;;;10.02;7.53;;;8.70;99.90;;;;;;5051641;28;20230;-64
2022/01/10 02:22:38;;;;;;;12.52;8.43;;;8.70;99.90;;;;;;5051990;28;20232;-64
2022/01/10 02:25:06;;;;;;;9.15;7.75;;;8.70;99.90;;;;;;5051684;28;20225;-64
2022/01/10 02:27:39;;;;;;;9.40;7.25;;;8.70;99.90;;;;;;5041037;28;20230;-64
2022/01/10 02:30:07;;;;;;;12.35;7.10;;;8.70;99.90;;;;;;5051648;28;20228;-64
2022/01/10 02:32:39;;;;;;;8.38;7.57;;;8.70;99.90;;;;;;5047597;28;20251;-64
2022/01/10 02:35:18;;;;;;;10.75;7.32;;;8.70;99.90;;;;;;5055236;28;20306;-64
2022/01/10 02:37:46;;;;;;;8.35;6.53;;;8.70;99.90;;;;;;5043316;28;20222;-64
2022/01/10 02:40:14;;;;;;;12.00;7.82;;;8.70;99.90;;;;;;5055730;28;20227;-64
2022/01/10 02:42:41;;;;;;;11.18;8.05;;;8.80;99.90;;;;;;5050935;28;20751;-64
2022/01/10 02:45:09;;;;;;;9.77;7.45;;;8.80;99.90;;;;;;5055211;28;21305;-64
2022/01/10 02:47:37;;;;;;;10.35;7.03;;;8.80;99.90;;;;;;5055864;28;20317;-64
2022/01/10 02:50:05;;;;;;;10.57;7.40;;;8.80;99.90;;;;;;5054860;28;20233;-64
2022/01/10 02:52:34;;;;;;;15.15;8.52;;;8.80;99.90;;;;;;5055476;28;20555;-63
2022/01/10 02:55:01;;;;;;;9.80;8.13;;;8.80;99.90;;;;;;5043899;28;20238;-63
2022/01/10 02:57:28;;;;;;;12.27;7.35;;;8.80;99.90;;;;;;5055412;28;20305;-64
2022/01/10 02:59:55;;;;;;;15.20;7.35;;;8.80;99.90;;;;;;5054550;28;20232;-64
2022/01/10 03:02:27;;;;;;;12.98;8.23;;;8.80;99.90;;;;;;5055513;28;20231;-64
2022/01/10 03:04:54;;;;;;;9.70;7.82;;;8.80;99.90;;;;;;5048963;28;20316;-64
2022/01/10 03:07:22;;;;;;;13.20;7.18;;;8.80;99.90;;;;;;5055166;28;20227;-64
2022/01/10 03:09:51;;;;;;;12.55;6.85;;;8.80;99.90;;;;;;5054493;28;20289;-64
2022/01/10 03:12:17;;;;;;;13.00;8.07;;;8.80;99.90;;;;;;5054697;28;20228;-64
2022/01/10 03:14:45;;;;;;;17.65;8.02;;;8.80;99.90;;;;;;5055254;28;20226;-64
2022/01/10 03:17:13;;;;;;;8.80;7.30;;;8.80;99.90;;;;;;5054344;28;20563;-64
2022/01/10 03:19:41;;;;;;;13.68;6.90;;;8.80;99.90;;;;;;5054994;28;20222;-64
2022/01/10 03:22:09;;;;;;;11.40;6.88;;;8.80;99.90;;;;;;5041384;28;20230;-64
2022/01/10 03:24:37;;;;;;;12.30;7.40;;;8.80;99.90;;;;;;5054936;28;20230;-64
2022/01/10 03:27:06;;;;;;;10.82;6.57;;;8.80;99.90;;;;;;5051088;28;20227;-64
2022/01/10 03:29:32;;;;;;;13.02;8.15;;;8.80;99.90;;;;;;5054550;28;20219;-64
2022/01/10 03:32:01;;;;;;;13.00;6.95;;;8.70;99.90;;;;;;5054489;28;20234;-64
2022/01/10 03:34:28;;;;;;;9.98;7.15;;;8.80;99.90;;;;;;5054546;28;20231;-64
2022/01/10 03:36:55;;;;;;;10.15;7.45;;;8.80;99.90;;;;;;5054266;28;20581;-64
2022/01/10 03:39:22;;;;;;;10.63;7.47;;;8.80;99.90;;;;;;5054612;28;20221;-64
2022/01/10 03:41:49;;;;;;;11.70;7.90;;;8.80;99.90;;;;;;5053976;28;20270;-64
2022/01/10 03:44:18;;;;;;;12.40;9.50;;;8.80;99.90;;;;;;5049498;28;20230;-64
2022/01/10 03:46:48;;;;;;;12.70;8.15;;;8.80;99.90;;;;;;5054594;28;20694;-64
2022/01/10 03:49:15;;;;;;;8.00;7.20;;;8.80;99.90;;;;;;5054114;28;20216;-64
2022/01/10 03:51:42;;;;;;;15.68;7.22;;;8.80;99.90;;;;;;5054380;28;20368;-64
2022/01/10 03:54:09;;;;;;;12.98;7.50;;;8.70;99.90;;;;;;5053730;28;20755;-64
2022/01/10 03:56:36;;;;;;;11.95;8.07;;;8.70;99.90;;;;;;5054140;28;20224;-64
2022/01/10 03:59:04;;;;;;;8.55;7.63;;;8.80;99.90;;;;;;5053837;28;20232;-64
2022/01/10 04:01:32;;;;;;;19.48;10.23;;;8.80;99.90;;;;;;5054173;28;20696;-64
2022/01/10 04:03:59;;;;;;;16.25;9.38;;;8.80;99.90;;;;;;5042717;28;20242;-65
2022/01/10 04:06:26;;;;;;;13.73;8.00;;;8.80;99.90;;;;;;5053808;28;20230;-64
2022/01/10 04:08:52;;;;;;;12.48;8.98;;;8.70;99.90;;;;;;5053273;28;20301;-64
2022/01/10 04:11:19;;;;;;;14.23;7.78;;;8.70;99.90;;;;;;5053573;28;20240;-64
2022/01/10 04:13:46;;;;;;;15.02;8.45;;;8.80;99.90;;;;;;5051093;28;20552;-64
2022/01/10 04:16:13;;;;;;;10.65;9.32;;;8.80;99.90;;;;;;5051294;28;20250;-64
2022/01/10 04:18:41;;;;;;;12.27;10.13;;;8.80;99.90;;;;;;5053244;28;20224;-64
2022/01/10 04:21:08;;;;;;;11.88;8.40;;;8.80;99.90;;;;;;5052691;28;20246;-64
2022/01/10 04:23:35;;;;;;;7.97;7.30;;;8.80;99.90;;;;;;5053095;28;20221;-64
2022/01/10 04:26:02;;;;;;;14.90;8.70;;;8.80;99.90;;;;;;5052182;28;20772;-64
2022/01/10 04:28:29;;;;;;;13.00;7.88;;;8.80;99.90;;;;;;5039982;28;20241;-64
2022/01/10 04:30:56;;;;;;;18.20;8.90;;;8.80;99.90;;;;;;5044445;28;20222;-64
2022/01/10 04:33:28;;;;;;;14.40;7.40;;;8.80;99.90;;;;;;5053653;28;20698;-64
2022/01/10 04:35:58;;;;;;;9.00;7.13;;;8.80;99.90;;;;;;5053239;28;20231;-64
2022/01/10 04:38:25;;;;;;;9.13;6.70;;;8.90;99.90;;;;;;5053628;28;20234;-64
2022/01/10 04:40:52;;;;;;;11.95;8.35;;;8.80;99.90;;;;;;5053421;28;20236;-64
2022/01/10 04:43:19;;;;;;;11.57;7.20;;;8.90;99.90;;;;;;5048321;28;20223;-64
2022/01/10 04:45:45;;;;;;;13.85;7.40;;;8.90;99.90;;;;;;5053246;28;20875;-64
2022/01/10 04:48:15;;;;;;;9.48;8.23;;;8.90;99.90;;;;;;5052894;28;20696;-64
2022/01/10 04:53:29;;;;;;;12.60;7.57;;;8.90;99.90;;;;;;5049368;28;20651;-64
2022/01/10 04:55:57;;;;;;;13.48;8.70;;;8.90;99.90;;;;;;5052376;28;20580;-64
2022/01/10 04:58:24;;;;;;;13.13;8.65;;;8.80;99.90;;;;;;5052775;28;20227;-64
2022/01/10 05:00:53;;;;;;;13.30;7.93;;;8.80;99.90;;;;;;5053115;28;20232;-64
2022/01/10 05:03:20;;;;;;;12.77;7.95;;;8.80;99.90;;;;;;5052747;28;20231;-64
2022/01/10 05:05:48;;;;;;;12.77;8.80;;;8.80;99.90;;;;;;5052815;28;20703;-64
2022/01/10 05:08:15;;;;;;;12.07;8.30;;;8.80;99.90;;;;;;5052750;28;20570;-64
2022/01/10 05:10:44;;;;;;;13.82;9.27;;;8.80;99.90;;;;;;5052976;28;20240;-64
2022/01/10 05:13:11;;;;;;;14.52;9.45;;;8.80;99.90;;;;;;5052542;28;20317;-64
2022/01/10 05:15:38;;;;;;;10.85;8.30;;;8.80;99.90;;;;;;5053130;28;20737;-64
2022/01/10 05:18:04;;;;;;;12.43;8.93;;;8.80;99.90;;;;;;5052827;28;20240;-64
2022/01/10 05:20:31;;;;;;;11.20;8.48;;;8.80;99.90;;;;;;5052561;28;20225;-64
2022/01/10 05:22:58;;;;;;;13.05;8.40;;;8.80;99.90;;;;;;5052873;28;20224;-64
2022/01/10 05:25:25;;;;;;;12.70;8.07;;;8.80;99.90;;;;;;5052454;28;20252;-64
2022/01/10 05:27:53;;;;;;;11.98;8.80;;;8.80;99.90;;;;;;5052647;28;20236;-65
2022/01/10 05:30:20;;;;;;;10.38;8.85;;;8.80;99.90;;;;;;5052370;28;20231;-64
2022/01/10 05:32:47;;;;;;;13.18;9.07;;;8.80;99.90;;;;;;5052714;28;20247;-65
2022/01/10 05:35:14;;;;;;;14.75;7.90;;;8.80;99.90;;;;;;5052500;28;20571;-64
2022/01/10 05:37:41;;;;;;;16.38;8.55;;;8.80;99.90;;;;;;5052452;28;20232;-64
2022/01/10 05:40:09;;;;;;;10.95;9.70;;;8.80;99.90;;;;;;5032622;28;20232;-64
2022/01/10 05:42:35;;;;;;;15.57;8.40;;;8.80;99.90;;;;;;5034423;28;20575;-65
2022/01/10 05:45:04;;;;;;;12.73;8.55;;;8.80;99.90;;;;;;5052431;28;20232;-64
2022/01/10 05:47:32;;;;;;;11.45;8.63;;;8.90;99.90;;;;;;5052205;28;20234;-65
2022/01/10 05:50:03;;;;;;;13.80;8.32;;;8.90;99.90;;;;;;5052491;28;20247;-65
2022/01/10 05:52:30;;;;;;;11.20;8.70;;;8.90;99.90;;;;;;5052246;28;20228;-66
2022/01/10 05:54:56;;;;;;;11.35;9.52;;;8.90;99.90;;;;;;5052613;28;20224;-64
2022/01/10 05:57:23;;;;;;;15.40;10.35;;;8.90;99.90;;;;;;5052290;28;20688;-65
2022/01/10 05:59:50;;;;;;;14.60;9.50;;;8.80;99.90;;;;;;5052236;28;20240;-65
2022/01/10 06:02:18;;;;;;;16.95;9.15;;;8.90;99.90;;;;;;5052028;28;20314;-65
2022/01/10 06:04:45;;;;;;;12.20;9.07;;;8.90;99.90;;;;;;5052234;28;20223;-63
2022/01/10 06:07:13;;;;;;;15.30;9.15;;;8.90;99.90;;;;;;5055023;28;20232;-64
2022/01/10 06:09:40;;;;;;;18.45;10.63;;;8.90;99.90;;;;;;5056216;28;20876;-64
2022/01/10 06:12:07;;;;;;;13.85;9.85;;;8.90;99.90;;;;;;5056504;28;20683;-64
2022/01/10 06:14:34;;;;;;;15.10;9.48;;;8.80;99.90;;;;;;5055976;28;20235;-64
2022/01/10 06:17:01;;;;;;;12.75;7.80;;;8.80;99.90;;;;;;5056416;28;20238;-64
2022/01/10 06:19:29;;;;;;;9.93;8.70;;;8.80;99.90;;;;;;5055891;28;20237;-65
2022/01/10 06:21:56;;;;;;;12.50;8.38;;;8.80;99.90;;;;;;5056014;28;20222;-64
2022/01/10 06:24:23;;;;;;;9.88;8.75;;;8.80;99.90;;;;;;5055589;28;20228;-64
2022/01/10 06:26:50;;;;;;;11.80;8.35;;;8.80;99.90;;;;;;5056138;28;20675;-64
2022/01/10 06:29:16;;;;;;;13.80;8.93;;;8.80;99.90;;;;;;5055509;28;20232;-64
2022/01/10 06:31:43;;;;;;;10.38;7.82;;;8.80;99.90;;;;;;5055849;28;20228;-64
2022/01/10 06:34:10;;;;;;;10.10;7.15;;;8.80;99.90;;;;;;5055873;28;20245;-64
2022/01/10 06:36:38;;;;;;;15.15;8.85;;;8.80;99.90;;;;;;5055526;28;20234;-65
2022/01/10 06:39:05;;;;;;;8.90;8.00;;;8.80;99.90;;;;;;5044260;28;20357;-65
2022/01/10 06:41:32;;;;;;;11.98;8.75;;;8.80;99.90;;;;;;5035399;28;20253;-65
2022/01/10 06:43:59;;;;;;;10.75;7.82;;;8.80;99.90;;;;;;5048894;28;20240;-63
2022/01/10 06:46:26;;;;;;;11.10;8.85;;;8.80;99.90;;;;;;5055215;28;20234;-64
2022/01/10 06:48:52;;;;;;;12.30;9.27;;;8.90;99.90;;;;;;5055738;28;20224;-64
2022/01/10 06:51:19;;;;;;;11.90;8.38;;;8.90;99.90;;;;;;5055280;28;20586;-64
2022/01/10 06:53:47;;;;;;;12.52;7.78;;;8.90;99.90;;;;;;5055599;28;20232;-64
2022/01/10 06:56:14;;;;;;;10.88;8.68;;;8.90;99.90;;;;;;5055534;28;20233;-64
2022/01/10 06:58:41;;;;;;;10.68;7.82;;;8.90;99.90;;;;;;5055226;28;20232;-64
2022/01/10 07:01:08;;;;;;;9.88;7.22;;;8.90;99.90;;;;;;5055460;28;20576;-64
2022/01/10 07:03:35;;;;;;;10.80;7.95;;;8.90;99.90;;;;;;5055033;28;20255;-64
2022/01/10 07:06:02;;;;;;;12.05;8.13;;;8.90;99.90;;;;;;5055142;28;20705;-64
2022/01/10 07:08:28;;;;;;;10.82;9.30;;;8.90;99.90;;;;;;5055007;28;20229;-64
2022/01/10 07:10:57;;;;;;;14.75;8.32;;;9.00;99.90;;;;;;5055276;28;20229;-64
2022/01/10 07:13:24;;;;;;;9.15;8.02;;;9.00;99.90;;;;;;5054651;28;20225;-65
2022/01/10 07:15:51;;;;;;;12.30;8.52;;;9.00;99.90;;;;;;5055333;28;20240;-64
2022/01/10 07:18:18;;;;;;;10.70;8.23;;;9.00;99.90;;;;;;5054339;28;20223;-64
2022/01/10 07:20:45;;;;;;;16.30;8.43;;;9.00;99.90;;;;;;5054811;28;20940;-65
2022/01/10 07:23:12;;;;;;;13.85;8.20;;;9.00;99.90;;;;;;5055011;28;20308;-64
2022/01/10 07:25:38;;;;;;;11.32;8.95;;;9.00;99.90;;;;;;5054477;28;20684;-64
2022/01/10 07:28:07;;;;;;;12.82;8.45;;;9.00;99.90;;;;;;5054772;28;20226;-64
2022/01/10 07:30:34;;;;;;;7.97;7.15;;;9.00;99.90;;;;;;5054606;28;20285;-64
2022/01/10 07:33:00;;;;;;;15.60;8.00;;;9.00;99.90;;;;;;5054617;28;20249;-64
2022/01/10 07:35:28;;;;;;;13.75;8.15;;;9.00;99.90;;;;;;5054426;28;20214;-64
2022/01/10 07:37:55;;;;;;;12.88;8.40;;;9.00;99.90;;;;;;5054508;28;20222;-64
2022/01/10 07:40:22;;;;;;;17.55;9.75;;;9.00;99.90;;;;;;5054232;28;20231;-64
2022/01/10 07:42:49;;;;;;;16.85;8.75;;;8.90;99.90;;;;;;5051316;28;20234;-64
2022/01/10 07:45:17;;;;;;;12.27;8.77;;;8.90;99.90;;;;;;5034817;28;20226;-64
2022/01/10 07:47:45;;;;;;;12.75;8.88;;;8.90;99.90;;;;;;5034149;28;20670;-64
2022/01/10 07:50:12;;;;;;;11.18;8.30;;;8.90;99.90;;;;;;5034521;28;20230;-65
2022/01/10 07:52:39;;;;;;;12.63;9.20;;;8.90;99.90;;;;;;5034035;28;20237;-65
2022/01/10 07:55:07;;;;;;;16.05;9.05;;;8.90;99.90;;;;;;5034634;28;20553;-64
2022/01/10 07:57:34;;;;;;;12.88;9.60;;;8.90;99.90;;;;;;5034187;28;20235;-64
2022/01/10 08:00:00;;;;;;;16.40;9.57;;;8.90;99.90;;;;;;5034161;28;20241;-64
2022/01/10 08:02:29;;;;;;;13.68;8.85;;;8.90;99.90;;;;;;5033812;28;20227;-64
2022/01/10 08:04:55;;;;;;;15.23;8.57;;;8.90;99.90;;;;;;5038876;28;20551;-64
2022/01/10 08:07:22;;;;;;;14.73;8.48;;;8.90;99.90;;;;;;5054048;28;20242;-64
2022/01/10 08:09:49;;;;;;;17.42;9.85;;;8.90;99.90;;;;;;5053870;28;20572;-64
2022/01/10 08:12:16;;;;;;;15.40;8.55;;;8.80;99.90;;;;;;5054206;28;20238;-64
2022/01/10 08:14:43;;;;;;;15.77;10.43;;;8.80;99.90;;;;;;5053678;28;20224;-65
2022/01/10 08:17:10;;;;;;;13.25;8.98;;;8.80;99.90;;;;;;5042013;28;20423;-64
2022/01/10 08:19:38;;;;;;;18.08;10.30;;;8.80;99.90;;;;;;5033663;28;20548;-64
2022/01/10 08:22:06;;;;;;;16.38;9.50;;;8.70;99.90;;;;;;5033886;28;20235;-65
2022/01/10 08:24:33;;;;;;;12.40;8.95;;;8.70;99.90;;;;;;5033637;28;20240;-64
2022/01/10 08:27:00;;;;;;;13.55;8.52;;;8.70;99.90;;;;;;5033953;28;20231;-64
2022/01/10 08:29:29;;;;;;;18.42;10.45;;;8.70;99.90;;;;;;5033387;28;20229;-65
2022/01/10 08:31:56;;;;;;;15.15;9.38;;;8.80;99.90;;;;;;5033996;28;20223;-64
2022/01/10 08:34:24;;;;;;;10.80;8.98;;;8.80;99.90;;;;;;5033553;28;20232;-64
2022/01/10 08:36:54;;;;;;;18.00;10.68;;;8.80;99.90;;;;;;5033361;28;20227;-64
2022/01/10 08:39:21;;;;;;;20.95;9.90;;;8.80;99.90;;;;;;5033766;28;20252;-64
2022/01/10 08:41:48;;;;;;;11.23;8.07;;;8.90;99.90;;;;;;5033217;28;20219;-64
2022/01/10 08:44:17;;;;;;;18.70;8.90;;;8.90;99.90;;;;;;5048833;28;20223;-64
2022/01/10 08:46:44;;;;;;;11.95;9.20;;;8.90;99.90;;;;;;5053118;28;20235;-64
2022/01/10 08:49:12;;;;;;;14.15;10.45;;;8.80;99.90;;;;;;5053366;28;20227;-64
2022/01/10 08:51:39;;;;;;;15.50;9.98;;;8.90;99.90;;;;;;5052892;28;20288;-64
2022/01/10 08:54:10;;;;;;;10.90;8.82;;;8.90;99.90;;;;;;5053505;28;20240;-64
2022/01/10 08:56:37;;;;;;;12.68;9.25;;;8.90;99.90;;;;;;5052842;28;20228;-64
2022/01/10 08:59:07;;;;;;;12.65;8.88;;;8.90;99.90;;;;;;5053255;28;20228;-64
2022/01/10 09:01:34;;;;;;;11.20;9.55;;;8.90;99.90;;;;;;5052942;28;20595;-64
2022/01/10 09:04:01;;;;;;;14.13;9.23;;;8.90;99.90;;;;;;5053149;28;20295;-64
2022/01/10 09:06:28;;;;;;;14.80;9.40;;;8.90;99.90;;;;;;5052823;28;20232;-64
2022/01/10 09:08:55;;;;;;;14.93;10.95;;;9.00;99.90;;;;;;5052898;28;21008;-64
2022/01/10 09:11:23;;;;;;;15.18;10.88;;;8.90;99.90;;;;;;5053049;28;20232;-64
2022/01/10 09:13:50;;;;;;;15.25;10.10;;;8.90;99.90;;;;;;5052583;28;20230;-64
2022/01/10 09:16:17;;;;;;;20.77;11.20;;;8.90;99.90;;;;;;5053146;28;20216;-64
2022/01/10 09:18:43;;;;;;;15.43;10.55;;;8.90;99.90;;;;;;5052550;28;20695;-64
2022/01/10 09:21:10;;;;;;;11.05;9.13;;;8.90;99.90;;;;;;5052965;28;20569;-63
2022/01/10 09:23:37;;;;;;;16.27;10.38;;;9.00;99.90;;;;;;5052569;28;20244;-65
2022/01/10 09:26:04;;;;;;;17.50;9.70;;;9.00;99.90;;;;;;5052638;28;20704;-64
2022/01/10 09:28:32;;;;;;;12.82;8.82;;;9.00;99.90;;;;;;5052957;28;20694;-66
2022/01/10 09:30:59;;;;;;;10.88;8.55;;;9.00;99.90;;;;;;5052459;28;21012;-64
2022/01/10 09:33:26;;;;;;;12.60;10.95;;;9.00;99.90;;;;;;5052656;28;20243;-64
2022/01/10 09:35:53;;;;;;;11.07;9.55;;;9.00;99.90;;;;;;5052391;28;20245;-64
2022/01/10 09:38:20;;;;;;;17.73;11.10;;;9.00;99.90;;;;;;5052609;28;20226;-64
2022/01/10 09:40:47;;;;;;;20.85;10.73;;;9.00;99.90;;;;;;5051662;28;20711;-64
2022/01/10 09:43:15;;;;;;;15.88;11.02;;;8.90;99.90;;;;;;5046130;28;20247;-64
2022/01/10 09:45:45;;;;;;;14.27;10.27;;;8.90;99.90;;;;;;5032212;28;20277;-65
2022/01/10 09:48:12;;;;;;;17.55;10.07;;;9.00;99.90;;;;;;5032631;28;20227;-65
2022/01/10 09:50:39;;;;;;;16.00;10.25;;;9.00;99.90;;;;;;5032267;28;20232;-65
2022/01/10 09:53:06;;;;;;;13.77;10.52;;;8.90;99.90;;;;;;5032465;28;20228;-64
2022/01/10 09:55:34;;;;;;;15.23;11.05;;;8.90;99.90;;;;;;5032578;28;20571;-64
2022/01/10 09:58:03;;;;;;;18.13;11.23;;;9.00;99.90;;;;;;5032249;28;20944;-64
2022/01/10 10:00:30;;;;;;;14.75;9.80;;;9.00;99.90;;;;;;5032574;28;20297;-64
2022/01/10 10:02:59;;;;;;;17.65;11.10;;;9.00;99.90;;;;;;5032086;28;20239;-64
2022/01/10 10:05:25;;;;;;;11.13;9.95;;;9.00;99.90;;;;;;5041154;28;20222;-64
2022/01/10 10:07:53;;;;;;;12.13;10.20;;;9.00;99.90;;;;;;5051788;28;20584;-64
2022/01/10 10:10:21;;;;;;;15.63;11.50;;;9.00;99.90;;;;;;5052453;28;20229;-64
2022/01/10 10:12:51;;;;;;;16.60;10.63;;;9.10;99.90;;;;;;5052125;28;20229;-64
2022/01/10 10:15:22;;;;;;;19.63;11.30;;;9.10;99.90;;;;;;5052365;28;20562;-64
2022/01/10 10:17:49;;;;;;;14.88;11.02;;;9.10;99.90;;;;;;5051720;28;20563;-64
2022/01/10 10:20:20;;;;;;;13.80;10.18;;;9.10;99.90;;;;;;5052334;28;20245;-64
2022/01/10 10:22:49;;;;;;;12.77;10.13;;;9.10;99.90;;;;;;5051789;28;20310;-64
2022/01/10 10:25:16;;;;;;;15.52;10.93;;;9.00;99.90;;;;;;5052408;28;20251;-64
2022/01/10 10:27:46;;;;;;;16.60;11.50;;;9.00;99.90;;;;;;5051648;28;20228;-65
2022/01/10 10:30:15;;;;;;;18.45;10.77;;;9.00;99.90;;;;;;5051938;28;20224;-64
2022/01/10 10:32:42;;;;;;;16.17;10.05;;;9.00;99.90;;;;;;5051579;28;20237;-64
2022/01/10 10:35:10;;;;;;;14.73;11.25;;;9.00;99.90;;;;;;5052196;28;20225;-64
2022/01/10 10:37:40;;;;;;;16.73;10.73;;;9.00;99.90;;;;;;5052108;28;20225;-64
2022/01/10 10:40:10;;;;;;;14.10;11.13;;;9.10;99.90;;;;;;5051806;28;20224;-64
2022/01/10 10:42:39;;;;;;;15.13;11.07;;;9.10;99.90;;;;;;5052211;28;20223;-64
2022/01/10 10:45:07;;;;;;;16.10;11.20;;;9.10;99.90;;;;;;5051763;28;20256;-64
2022/01/10 10:47:35;;;;;;;13.80;10.90;;;9.10;99.90;;;;;;5051882;28;20234;-64
2022/01/10 10:50:05;;;;;;;15.50;10.23;;;9.10;99.90;;;;;;5051510;28;20261;-64
2022/01/10 10:52:33;;;;;;;13.20;10.38;;;9.10;99.90;;;;;;5051857;28;20311;-65
2022/01/10 10:55:08;;;;;;;16.02;10.57;;;9.10;99.90;;;;;;5055013;28;20296;-64
2022/01/10 10:57:35;;;;;;;19.70;11.60;;;9.00;99.90;;;;;;5055471;28;20307;-64
2022/01/10 11:00:02;;;;;;;14.57;10.68;;;9.10;99.90;;;;;;5054958;28;20241;-64
2022/01/10 11:02:29;;;;;;;16.00;10.85;;;9.10;99.90;;;;;;5055532;28;20223;-64
2022/01/10 11:04:56;;;;;;;24.80;12.85;;;9.10;99.90;;;;;;5055010;28;20560;-64
2022/01/10 11:07:27;;;;;;;15.50;13.57;;;9.10;99.90;;;;;;5055217;28;20252;-64
2022/01/10 11:09:55;;;;;;;13.40;11.98;;;9.10;99.90;;;;;;5054965;28;20228;-64
2022/01/10 11:12:24;;;;;;;18.55;11.40;;;9.10;99.90;;;;;;5055198;28;20229;-64
2022/01/10 11:14:54;;;;;;;16.75;11.23;;;9.10;99.90;;;;;;5054790;28;20225;-64
2022/01/10 11:17:22;;;;;;;13.85;11.70;;;9.20;99.90;;;;;;5055283;28;20580;-64
2022/01/10 11:20:08;;;;;;;12.20;10.00;;;9.10;99.90;;;;;;5054586;28;20573;-64
2022/01/10 11:22:35;;;;;;;14.90;10.50;;;9.20;99.90;;;;;;5054840;28;20226;-64
2022/01/10 11:25:03;;;;;;;12.57;9.00;;;9.20;99.90;;;;;;5054503;28;20236;-64
2022/01/10 11:27:33;;;;;;;10.73;8.77;;;9.20;99.90;;;;;;5054877;28;20224;-64
2022/01/10 11:30:02;;;;;;;12.55;10.20;;;9.20;99.90;;;;;;5054413;28;20240;-64
2022/01/10 11:32:51;;;;;;;13.27;9.80;;;9.20;99.90;;;;;;5054725;28;20227;-65
2022/01/10 11:35:19;;;;;;;14.07;10.40;;;9.20;99.90;;;;;;5054889;28;20704;-64
2022/01/10 11:37:46;;;;;;;9.55;7.32;;;9.20;99.90;;;;;;5054632;28;20230;-64
2022/01/10 11:40:15;;;;;;;12.38;8.32;;;9.20;99.90;;;;;;5054238;28;20230;-64
2022/01/10 11:42:47;;;;;;;9.65;7.60;;;9.20;99.90;;;;;;5052176;28;20567;-65
2022/01/10 11:45:15;;;;;;;8.40;7.07;;;9.30;99.90;;;;;;5034620;28;20231;-65
2022/01/10 11:48:14;;;;;;;8.85;6.88;;;9.30;99.90;;;;;;5034629;28;20227;-65
2022/01/10 11:50:44;;;;;;;9.27;6.30;;;9.30;99.90;;;;;;5034392;28;20226;-64
2022/01/10 11:53:11;;;;;;;9.85;7.30;;;9.30;99.90;;;;;;5034631;28;20253;-64
2022/01/10 11:55:44;;;;;;;8.73;6.80;;;9.40;99.90;;;;;;5034331;28;20570;-64
2022/01/10 11:58:19;;;;;;;8.95;6.05;;;9.40;99.90;;;;;;5034535;28;20234;-65
2022/01/10 12:00:47;;;;;;;8.18;6.35;;;9.40;99.90;;;;;;5034015;28;20567;-64
2022/01/10 12:03:17;;;;;;;8.63;6.43;;;9.50;99.90;;;;;;5034420;28;20239;-64
2022/01/10 12:05:44;;;;;;;7.38;5.32;;;9.50;99.90;;;;;;5044534;28;20221;-64
2022/01/10 12:08:11;;;;;;;5.90;5.30;;;9.50;99.90;;;;;;5054107;28;20242;-64
2022/01/10 12:10:38;;;;;;;6.65;5.13;;;9.50;99.90;;;;;;5053762;28;20237;-64
2022/01/10 12:13:10;;;;;;;8.65;5.10;;;9.50;99.90;;;;;;5054109;28;20226;-64
2022/01/10 12:15:39;;;;;;;8.55;5.35;;;9.50;99.90;;;;;;5053771;28;20229;-64
2022/01/10 12:18:08;;;;;;;7.60;5.05;;;9.50;99.90;;;;;;5053926;28;20679;-64
2022/01/10 12:20:35;;;;;;;7.38;4.60;;;9.50;99.90;;;;;;5054036;28;20251;-64
2022/01/10 12:23:02;;;;;;;7.10;4.97;;;9.50;99.90;;;;;;5053630;28;20222;-64
2022/01/10 12:25:29;;;;;;;5.78;4.78;;;9.50;99.90;;;;;;5053938;28;20217;-64
2022/01/10 12:28:00;;;;;;;7.05;5.70;;;9.50;99.90;;;;;;5053512;28;20231;-65
2022/01/10 12:30:27;;;;;;;6.95;5.57;;;9.50;99.90;;;;;;5053837;28;20622;-64
2022/01/10 12:32:55;;;;;;;10.68;7.05;;;9.50;99.90;;;;;;5053079;28;20242;-64
2022/01/10 12:35:22;;;;;;;6.97;5.82;;;9.50;99.90;;;;;;5053753;28;20370;-64
2022/01/10 12:37:52;;;;;;;8.00;6.82;;;9.50;99.90;;;;;;5053126;28;20223;-64
2022/01/10 12:40:19;;;;;;;9.05;6.55;;;9.50;99.90;;;;;;5053398;28;20226;-64
2022/01/10 12:42:51;;;;;;;7.38;6.68;;;9.50;99.90;;;;;;5050147;28;20226;-64
2022/01/10 12:45:17;;;;;;;9.02;6.47;;;9.50;99.90;;;;;;5033626;28;20246;-64
2022/01/10 12:47:46;;;;;;;8.07;6.80;;;9.50;99.90;;;;;;5032874;28;20562;-63
2022/01/10 12:50:15;;;;;;;8.27;6.00;;;9.50;99.90;;;;;;5033582;28;20570;-63
2022/01/10 12:52:42;;;;;;;9.63;6.82;;;9.40;99.90;;;;;;5032957;28;20571;-64
2022/01/10 12:55:10;;;;;;;13.48;7.93;;;9.40;99.90;;;;;;5033691;28;20229;-64
2022/01/10 12:57:37;;;;;;;19.13;9.45;;;9.40;99.90;;;;;;5033474;28;20287;-64
2022/01/10 13:00:07;;;;;;;13.95;10.48;;;9.40;99.90;;;;;;5032888;28;20232;-64